Time;durP1;ratioP1;P1;durP2;ratioP2;P2;SDS_P1;SDS_P2;PMS_P1;PMS_P2;Temp;Humidity;BMP_temperature;BMP_pressure;BME280_temperature;BME280_humidity;BME280_pressure;Samples;Min_cycle;Max_cycle;Signal;HPM_P1;HPM_P2
2023/05/19 00:02:59;;;;;;;3.83;3.50;;;;;;;7.60;94.51;98480.44;6142409;28;20800;-48
2023/05/19 00:06:03;;;;;;;11.47;4.33;;;;;;;7.59;94.10;98483.31;6142712;28;20690;-47
2023/05/19 00:09:08;;;;;;;5.30;3.70;;;;;;;7.57;94.21;98470.22;6143734;28;20233;-46
2023/05/19 00:12:11;;;;;;;4.73;3.90;;;;;;;7.58;94.55;98477.16;6127056;28;20225;-48
2023/05/19 00:15:15;;;;;;;5.93;4.07;;;;;;;7.57;94.08;98464.13;6146998;28;20218;-47
2023/05/19 00:18:17;;;;;;;4.47;4.07;;;;;;;7.55;94.58;98464.31;6153958;28;20221;-46
2023/05/19 00:21:20;;;;;;;4.67;3.90;;;;;;;7.55;94.13;98466.97;6146582;28;20292;-45
2023/05/19 00:24:22;;;;;;;5.10;3.90;;;;;;;7.55;94.29;98461.69;6147856;28;20289;-45
2023/05/19 00:27:24;;;;;;;4.13;3.63;;;;;;;7.56;94.37;98463.31;6151639;28;20247;-47
2023/05/19 00:30:26;;;;;;;5.63;3.57;;;;;;;7.57;94.44;98464.94;6147795;28;20230;-45
2023/05/19 00:33:28;;;;;;;4.03;3.60;;;;;;;7.57;94.46;98462.28;6152122;28;20235;-47
2023/05/19 00:36:30;;;;;;;4.63;3.50;;;;;;;7.56;94.61;98460.66;6150795;28;20236;-51
2023/05/19 00:39:33;;;;;;;4.63;3.87;;;;;;;7.55;94.47;98458.22;6148565;28;20229;-46
2023/05/19 00:42:35;;;;;;;4.00;3.60;;;;;;;7.53;94.34;98454.94;6147253;28;20717;-46
2023/05/19 00:45:37;;;;;;;6.63;4.07;;;;;;;7.53;94.49;98453.09;6129762;28;20400;-46
2023/05/19 00:48:39;;;;;;;3.80;3.40;;;;;;;7.53;94.50;98466.34;6148598;28;20233;-48
2023/05/19 00:51:42;;;;;;;5.77;3.83;;;;;;;7.51;94.19;98457.78;6150647;28;20252;-49
2023/05/19 00:54:45;;;;;;;5.47;3.97;;;;;;;7.51;94.19;98460.44;6153264;28;20245;-50
2023/05/19 00:57:48;;;;;;;5.10;4.53;;;;;;;7.48;94.19;98453.69;6146698;28;20773;-47
2023/05/19 01:00:50;;;;;;;4.57;4.13;;;;;;;7.48;94.42;98458.19;6147575;28;20323;-48
2023/05/19 01:03:55;;;;;;;9.97;4.93;;;;;;;7.47;94.54;98457.38;6146903;28;20377;-47
2023/05/19 01:06:57;;;;;;;5.57;3.77;;;;;;;7.46;94.53;98452.28;6143163;28;20229;-50
2023/05/19 01:10:00;;;;;;;6.27;4.40;;;;;;;7.44;94.59;98449.03;6147659;28;20325;-48
2023/05/19 01:13:04;;;;;;;5.00;4.03;;;;;;;7.42;94.37;98454.50;6132889;28;20296;-47
2023/05/19 01:16:22;;;;;;;6.43;4.47;;;;;;;7.40;94.42;98451.25;6150069;28;20238;-48
2023/05/19 01:19:49;;;;;;;7.23;4.40;;;;;;;7.36;94.75;98444.72;6125028;28;20598;-47
2023/05/19 01:23:35;;;;;;;6.30;4.60;;;;;;;7.31;94.22;98443.72;6124059;29;20294;-49
2023/05/19 01:27:16;;;;;;;4.57;3.87;;;;;;;7.24;94.19;98444.53;6121275;29;20240;-46
2023/05/19 01:30:18;;;;;;;5.40;4.50;;;;;;;7.22;94.37;98440.44;6108548;29;20222;-45
2023/05/19 01:33:23;;;;;;;7.10;4.73;;;;;;;7.17;94.29;98433.06;6104073;29;20231;-50
2023/05/19 01:36:26;;;;;;;5.67;4.63;;;;;;;7.13;94.32;98437.13;6124097;29;20559;-49
2023/05/19 01:39:30;;;;;;;5.90;4.80;;;;;;;7.10;94.56;98436.75;6120825;29;20234;-49
2023/05/19 01:42:36;;;;;;;4.80;4.00;;;;;;;7.09;94.44;98445.69;6122894;29;20227;-46
2023/05/19 01:45:39;;;;;;;7.17;5.60;;;;;;;7.09;94.40;98437.75;6120822;29;20245;-46
2023/05/19 01:48:43;;;;;;;13.43;5.27;;;;;;;7.10;94.45;98431.44;6121515;29;20233;-51
2023/05/19 01:51:45;;;;;;;8.27;6.23;;;;;;;7.11;94.53;98436.53;6108383;29;20285;-47
2023/05/19 01:54:48;;;;;;;7.63;5.37;;;;;;;7.11;94.57;98430.41;6119538;29;20292;-49
2023/05/19 01:57:51;;;;;;;6.53;5.37;;;;;;;7.08;94.47;98431.63;6121167;29;20401;-50
2023/05/19 02:01:24;;;;;;;6.63;4.97;;;;;;;7.08;94.72;98439.56;6110606;29;20943;-46
2023/05/19 02:04:41;;;;;;;10.57;6.80;;;;;;;7.05;94.52;98433.88;6123235;29;20733;-47
2023/05/19 02:07:51;;;;;;;8.63;6.10;;;;;;;7.03;94.94;98442.00;6106856;29;20241;-51
2023/05/19 02:11:06;;;;;;;8.40;5.80;;;;;;;7.02;94.81;98429.78;6120453;29;20802;-50
2023/05/19 02:14:34;;;;;;;13.97;7.10;;;;;;;6.97;94.49;98422.44;6105427;29;20330;-46
2023/05/19 02:17:40;;;;;;;8.13;6.33;;;;;;;6.96;94.77;98426.09;6100620;29;20243;-45
2023/05/19 02:20:43;;;;;;;10.50;6.87;;;;;;;6.93;94.86;98420.38;6124028;29;20239;-51
2023/05/19 02:23:46;;;;;;;8.33;6.60;;;;;;;6.90;94.72;98421.63;6118499;29;20233;-51
2023/05/19 02:26:50;;;;;;;10.30;6.63;;;;;;;6.87;94.98;98424.66;6122817;29;20285;-49
2023/05/19 02:29:53;;;;;;;7.83;6.40;;;;;;;6.83;94.93;98417.31;6120329;29;20560;-46
2023/05/19 02:32:55;;;;;;;8.97;6.90;;;;;;;6.82;95.09;98418.31;6120554;29;20239;-47
2023/05/19 02:35:58;;;;;;;8.87;7.83;;;;;;;6.80;94.67;98417.69;6123564;29;20275;-47
2023/05/19 02:39:00;;;;;;;10.87;8.93;;;;;;;6.79;94.96;98421.38;6104489;29;20249;-49
2023/05/19 02:42:03;;;;;;;13.37;9.50;;;;;;;6.79;95.34;98424.81;6119198;29;20233;-51
2023/05/19 02:45:06;;;;;;;11.47;9.27;;;;;;;6.81;95.24;98416.69;6118011;29;20231;-51
2023/05/19 02:48:08;;;;;;;17.07;10.67;;;;;;;6.81;95.43;98416.69;6120544;29;20211;-47
2023/05/19 02:51:11;;;;;;;14.57;9.50;;;;;;;6.81;95.21;98411.41;6126474;29;20233;-49
2023/05/19 02:54:13;;;;;;;12.67;9.77;;;;;;;6.79;95.59;98400.19;6124907;29;20245;-49
2023/05/19 02:57:16;;;;;;;15.97;11.77;;;;;;;6.81;95.75;98406.91;6120954;29;20300;-50
2023/05/19 03:00:18;;;;;;;15.13;11.40;;;;;;;6.82;95.94;98405.09;6119433;29;20219;-49
2023/05/19 03:03:21;;;;;;;14.53;10.40;;;;;;;6.83;95.74;98406.72;6103940;29;20218;-51
2023/05/19 03:06:23;;;;;;;12.43;9.67;;;;;;;6.84;96.03;98408.34;6117635;29;20229;-51
2023/05/19 03:09:26;;;;;;;15.53;10.37;;;;;;;6.82;95.60;98402.44;6117674;29;20223;-47
2023/05/19 03:12:28;;;;;;;15.73;10.20;;;;;;;6.75;95.77;98399.78;6120472;29;20317;-46
2023/05/19 03:15:31;;;;;;;15.43;11.43;;;;;;;6.78;96.15;98411.78;6118802;29;20236;-52
2023/05/19 03:18:34;;;;;;;12.93;10.50;;;;;;;6.81;96.20;98419.34;6121195;28;20249;-51
2023/05/19 03:21:36;;;;;;;18.17;12.73;;;;;;;6.82;95.70;98419.13;6120472;29;20338;-51
2023/05/19 03:24:39;;;;;;;15.17;10.97;;;;;;;6.83;95.95;98420.75;6101393;29;20239;-50
2023/05/19 03:27:41;;;;;;;16.40;11.10;;;;;;;6.86;96.02;98417.72;6120776;29;20234;-52
2023/05/19 03:30:44;;;;;;;18.00;12.63;;;;;;;6.88;96.13;98412.22;6120492;29;20300;-51
2023/05/19 03:33:51;;;;;;;16.67;13.37;;;;;;;6.90;96.21;98421.63;6118263;29;20740;-50
2023/05/19 03:36:54;;;;;;;13.90;11.67;;;;;;;6.94;96.26;98428.13;6117098;29;20715;-50
2023/05/19 03:39:58;;;;;;;17.13;12.77;;;;;;;7.00;96.33;98431.03;6115299;29;20324;-51
2023/05/19 03:43:01;;;;;;;16.50;11.83;;;;;;;7.00;96.39;98425.72;6121252;29;20254;-50
2023/05/19 03:46:03;;;;;;;16.37;12.53;;;;;;;7.01;96.13;98432.66;6120910;29;20246;-51
2023/05/19 03:49:15;;;;;;;18.33;12.70;;;;;;;7.03;96.38;98425.31;6121463;28;20293;-50
2023/05/19 03:52:37;;;;;;;15.83;12.73;;;;;;;7.05;96.37;98426.75;6124092;29;20245;-49
2023/05/19 03:56:03;;;;;;;16.63;12.90;;;;;;;7.09;96.48;98425.31;6123153;29;20235;-50
2023/05/19 03:59:06;;;;;;;18.87;13.37;;;;;;;7.11;96.27;98422.47;6125694;29;20261;-51
2023/05/19 04:02:10;;;;;;;16.00;12.67;;;;;;;7.13;96.45;98425.72;6122125;29;20738;-52
2023/05/19 04:05:13;;;;;;;19.83;14.40;;;;;;;7.15;96.31;98426.34;6121957;29;20242;-51
2023/05/19 04:08:16;;;;;;;22.37;13.20;;;;;;;7.15;96.36;98424.53;6123650;29;20266;-50
2023/05/19 04:11:21;;;;;;;13.70;11.27;;;;;;;7.18;96.81;98426.75;6123323;29;20240;-47
2023/05/19 04:14:23;;;;;;;17.27;12.83;;;;;;;7.22;96.34;98429.81;6125543;29;20235;-46
2023/05/19 04:17:26;;;;;;;15.60;12.83;;;;;;;7.26;96.37;98435.53;6112416;29;20247;-47
2023/05/19 04:20:28;;;;;;;21.20;14.50;;;;;;;7.28;96.54;98433.50;6125796;29;20241;-45
2023/05/19 04:23:31;;;;;;;18.23;14.40;;;;;;;7.27;95.78;98435.34;6122426;29;20549;-46
2023/05/19 04:26:34;;;;;;;19.17;13.57;;;;;;;7.36;92.12;98436.78;6120980;29;20711;-46
2023/05/19 04:29:37;;;;;;;16.93;12.97;;;;;;;7.47;92.35;98443.31;6105230;29;20883;-47
2023/05/19 04:32:40;;;;;;;16.10;10.63;;;;;;;7.55;92.69;98435.16;6107202;29;20329;-45
2023/05/19 04:35:42;;;;;;;16.40;11.40;;;;;;;7.62;93.12;98435.97;6123608;29;20270;-46
2023/05/19 04:38:46;;;;;;;17.40;12.03;;;;;;;7.66;91.45;98436.38;6125603;29;20226;-46
2023/05/19 04:41:50;;;;;;;13.03;11.00;;;;;;;7.71;90.52;98436.59;6128416;29;20320;-47
2023/05/19 04:44:52;;;;;;;13.60;10.80;;;;;;;7.75;88.67;98437.81;6123957;29;20270;-46
2023/05/19 04:47:57;;;;;;;12.70;9.57;;;;;;;7.85;88.28;98424.94;6122267;29;20712;-46
2023/05/19 04:51:00;;;;;;;13.73;10.23;;;;;;;7.89;87.25;98428.81;6126043;29;20234;-45
2023/05/19 04:54:03;;;;;;;11.77;9.73;;;;;;;7.93;86.72;98431.84;6106271;29;20234;-46
2023/05/19 04:57:05;;;;;;;12.87;9.73;;;;;;;7.96;86.96;98432.28;6124191;29;20226;-46
2023/05/19 05:00:13;;;;;;;15.03;10.23;;;;;;;8.01;86.28;98439.63;6131037;29;21088;-47
2023/05/19 05:03:44;;;;;;;12.20;10.00;;;;;;;8.07;85.94;98437.97;6111588;29;20250;-47
2023/05/19 05:06:47;;;;;;;12.10;10.07;;;;;;;8.11;86.05;98434.69;6123190;29;20241;-45
2023/05/19 05:09:51;;;;;;;13.60;10.03;;;;;;;8.15;86.33;98440.41;6121441;29;20235;-46
2023/05/19 05:12:54;;;;;;;11.50;9.53;;;;;;;8.20;86.58;98437.94;6108212;29;20245;-45
2023/05/19 05:15:57;;;;;;;10.13;8.10;;;;;;;8.22;87.22;98431.41;6122625;29;20239;-46
2023/05/19 05:19:00;;;;;;;8.00;6.83;;;;;;;8.28;87.25;98435.91;6121461;28;20234;-47
2023/05/19 05:22:04;;;;;;;10.03;7.27;;;;;;;8.36;87.55;98442.00;6122078;29;20246;-48
2023/05/19 05:25:08;;;;;;;11.60;7.70;;;;;;;8.40;87.70;98436.09;6110003;29;20242;-46
2023/05/19 05:28:11;;;;;;;14.13;10.23;;;;;;;8.44;86.93;98442.63;6120192;29;20248;-46
2023/05/19 05:31:14;;;;;;;14.17;10.10;;;;;;;8.54;85.79;98444.84;6107831;29;20325;-45
2023/05/19 05:34:18;;;;;;;13.70;10.63;;;;;;;8.55;84.58;98443.00;6119733;29;20243;-47
2023/05/19 05:37:20;;;;;;;14.23;10.27;;;;;;;8.53;85.04;98432.59;6124127;29;20361;-47
2023/05/19 05:40:22;;;;;;;16.80;9.50;;;;;;;8.70;85.43;98438.22;6120740;29;20245;-46
2023/05/19 05:43:25;;;;;;;11.43;9.30;;;;;;;8.90;82.18;98436.28;6120223;29;20338;-46
2023/05/19 05:46:32;;;;;;;11.50;9.13;;;;;;;8.83;83.51;98437.38;6127017;29;20802;-47
2023/05/19 05:49:36;;;;;;;12.47;9.60;;;;;;;8.81;84.07;98440.22;6107518;28;20698;-45
2023/05/19 05:52:41;;;;;;;11.23;9.33;;;;;;;8.94;83.99;98448.13;6118948;29;20267;-47
2023/05/19 05:55:46;;;;;;;12.37;9.80;;;;;;;9.01;83.76;98442.78;6125535;29;20235;-49
2023/05/19 05:58:49;;;;;;;10.13;8.50;;;;;;;9.07;82.57;98438.47;6104556;29;20737;-46
2023/05/19 06:01:52;;;;;;;10.77;8.23;;;;;;;9.12;82.54;98443.97;6127768;29;20235;-47
2023/05/19 06:04:54;;;;;;;12.67;8.53;;;;;;;9.19;82.53;98437.56;6106650;29;20296;-46
2023/05/19 06:07:57;;;;;;;9.30;7.37;;;;;;;9.29;82.26;98442.41;6106646;29;20239;-47
2023/05/19 06:11:07;;;;;;;11.40;7.43;;;;;;;9.40;81.84;98435.59;6123214;29;20746;-46
2023/05/19 06:14:11;;;;;;;8.30;6.07;;;;;;;9.49;82.33;98437.75;6106918;29;20248;-45
2023/05/19 06:17:29;;;;;;;6.93;5.10;;;;;;;9.59;82.74;98439.94;6123303;29;20229;-47
2023/05/19 06:20:31;;;;;;;13.50;8.00;;;;;;;9.66;81.12;98446.03;6111472;29;20609;-45
2023/05/19 06:23:34;;;;;;;8.03;6.27;;;;;;;9.74;81.01;98442.28;6124926;29;20274;-47
2023/05/19 06:26:39;;;;;;;9.37;7.10;;;;;;;9.81;79.95;98449.19;6106517;29;20640;-47
2023/05/19 06:29:41;;;;;;;8.33;6.70;;;;;;;9.87;79.98;98434.19;6123844;29;20244;-46
2023/05/19 06:32:44;;;;;;;8.87;7.60;;;;;;;9.97;80.07;98437.16;6132505;29;20246;-51
2023/05/19 06:35:47;;;;;;;10.80;7.60;;;;;;;10.09;80.54;98440.72;6122637;29;20233;-45
2023/05/19 06:38:50;;;;;;;9.00;6.20;;;;;;;10.20;80.32;98441.88;6124851;29;20243;-45
2023/05/19 06:41:54;;;;;;;7.40;6.13;;;;;;;10.30;80.48;98438.72;6105572;29;20225;-47
2023/05/19 06:45:15;;;;;;;7.93;6.30;;;;;;;10.38;80.45;98441.09;6125485;29;20230;-51
2023/05/19 06:48:18;;;;;;;9.13;6.67;;;;;;;10.44;79.68;98450.88;6119139;29;20210;-47
2023/05/19 06:51:21;;;;;;;9.47;6.87;;;;;;;10.47;77.40;98453.06;6130572;29;20733;-47
2023/05/19 06:54:28;;;;;;;6.90;5.53;;;;;;;10.59;78.17;98450.50;6122157;29;20244;-47
2023/05/19 06:57:31;;;;;;;6.87;6.17;;;;;;;10.67;77.82;98454.69;6122575;29;20231;-47
2023/05/19 07:00:36;;;;;;;9.33;6.90;;;;;;;10.88;77.18;98464.09;6122707;29;20233;-52
2023/05/19 07:03:40;;;;;;;9.13;6.57;;;;;;;10.98;78.25;98456.34;6107988;29;20374;-51
2023/05/19 07:06:44;;;;;;;9.40;6.57;;;;;;;11.01;78.59;98467.41;6129924;29;20323;-50
2023/05/19 07:09:47;;;;;;;6.73;5.97;;;;;;;11.06;78.84;98464.88;6122904;29;20657;-45
2023/05/19 07:12:49;;;;;;;9.00;7.00;;;;;;;11.16;78.26;98469.66;6107258;29;20243;-45
2023/05/19 07:15:57;;;;;;;7.83;6.33;;;;;;;11.29;78.68;98469.50;6122216;29;20292;-47
2023/05/19 07:19:02;;;;;;;9.90;6.47;;;;;;;11.27;73.81;98465.41;6129017;28;20262;-50
2023/05/19 07:22:05;;;;;;;7.03;5.57;;;;;;;11.35;76.16;98470.44;6129263;28;20238;-48
2023/05/19 07:25:08;;;;;;;9.10;6.13;;;;;;;11.36;74.57;98466.72;6145472;28;20728;-52
2023/05/19 07:28:10;;;;;;;9.87;5.30;;;;;;;11.35;75.62;98471.25;6145709;28;20238;-48
2023/05/19 07:34:42;;;;;;;8.20;7.10;;;;;;;11.52;73.33;98455.38;6210154;28;20236;-56
2023/05/19 07:37:53;;;;;;;7.00;5.73;;;;;;;11.46;73.90;98455.50;6215029;28;20224;-56
2023/05/19 07:40:56;;;;;;;8.40;6.43;;;;;;;11.37;73.97;98457.66;6214153;28;20600;-56
2023/05/19 07:43:58;;;;;;;8.33;6.50;;;;;;;11.52;75.43;98458.06;6220766;28;20227;-55
2023/05/19 07:47:00;;;;;;;8.10;5.50;;;;;;;11.71;73.73;98450.78;6197885;28;20248;-56
2023/05/19 07:50:03;;;;;;;8.80;6.20;;;;;;;11.69;72.58;98442.22;6214430;28;20313;-56
2023/05/19 07:53:05;;;;;;;7.80;6.60;;;;;;;11.79;72.26;98453.13;6215733;28;20290;-55
2023/05/19 07:56:08;;;;;;;7.53;5.33;;;;;;;11.85;72.25;98448.75;6215462;28;20244;-56
2023/05/19 07:59:10;;;;;;;7.37;6.23;;;;;;;11.94;71.85;98449.22;6216683;28;20259;-56
2023/05/19 08:02:12;;;;;;;7.73;5.60;;;;;;;12.02;72.38;98446.19;6213506;28;20601;-56
2023/05/19 08:05:14;;;;;;;8.03;5.27;;;;;;;12.05;70.39;98449.22;6214355;28;20231;-56
2023/05/19 08:08:18;;;;;;;6.90;5.20;;;;;;;12.05;70.42;98456.44;6215184;28;20236;-56
2023/05/19 08:11:21;;;;;;;6.17;4.83;;;;;;;12.17;70.33;98454.59;6213483;28;20961;-56
2023/05/19 08:14:23;;;;;;;5.53;4.73;;;;;;;12.37;69.94;98451.53;6216639;28;20243;-56
2023/05/19 08:17:25;;;;;;;7.07;5.40;;;;;;;12.52;70.34;98451.88;6213794;28;20357;-56
2023/05/19 08:20:28;;;;;;;5.73;4.47;;;;;;;12.59;69.69;98444.53;6213987;28;20224;-56
2023/05/19 08:23:30;;;;;;;6.33;4.90;;;;;;;12.74;69.00;98453.91;6215961;28;20737;-56
2023/05/19 08:26:33;;;;;;;6.57;4.67;;;;;;;12.91;67.38;98450.25;6215364;28;20237;-56
2023/05/19 08:29:38;;;;;;;5.93;3.87;;;;;;;12.84;68.86;98449.56;6215798;28;20445;-56
2023/05/19 08:32:41;;;;;;;6.47;4.53;;;;;;;12.91;69.33;98449.44;6204668;28;20248;-56
2023/05/19 08:35:43;;;;;;;5.23;3.83;;;;;;;12.96;68.19;98446.88;6190782;28;20263;-56
2023/05/19 08:38:45;;;;;;;5.70;3.90;;;;;;;13.00;68.85;98448.00;6197148;28;20232;-56
2023/05/19 08:41:47;;;;;;;5.73;4.40;;;;;;;13.01;67.25;98446.16;6197690;28;20310;-55
2023/05/19 08:44:50;;;;;;;8.67;5.10;;;;;;;12.78;66.52;98450.53;6197806;28;20236;-56
2023/05/19 08:47:52;;;;;;;6.00;4.53;;;;;;;12.61;66.57;98450.47;6194886;28;20375;-56
2023/05/19 08:51:25;;;;;;;9.20;4.83;;;;;;;12.61;67.58;98444.28;6194131;28;20237;-56
2023/05/19 08:54:40;;;;;;;8.47;4.47;;;;;;;12.76;68.68;98452.63;6198359;28;20240;-56
2023/05/19 08:57:42;;;;;;;5.47;4.30;;;;;;;13.05;66.47;98447.28;6195911;28;20247;-56
2023/05/19 09:00:46;;;;;;;7.73;4.57;;;;;;;12.94;66.23;98440.94;6193632;28;20263;-56
2023/05/19 09:03:49;;;;;;;5.93;4.67;;;;;;;12.57;67.37;98443.97;6194170;28;20671;-56
2023/05/19 09:06:52;;;;;;;8.33;4.50;;;;;;;12.37;67.86;98448.88;6193129;28;20738;-56
2023/05/19 09:09:55;;;;;;;6.33;5.07;;;;;;;12.19;67.60;98439.13;6195164;28;20391;-56
2023/05/19 09:12:57;;;;;;;7.93;4.17;;;;;;;12.27;68.38;98454.00;6195909;28;20229;-56
2023/05/19 09:16:00;;;;;;;6.90;4.80;;;;;;;12.27;67.68;98441.44;6194123;28;20330;-56
2023/05/19 09:19:03;;;;;;;5.47;3.87;;;;;;;12.33;68.82;98450.38;6195165;28;20288;-56
2023/05/19 09:22:05;;;;;;;7.17;5.90;;;;;;;12.48;68.24;98456.06;6195028;28;20369;-55
2023/05/19 09:25:23;;;;;;;7.63;6.10;;;;;;;12.40;68.16;98430.50;6194961;28;20243;-56
2023/05/19 09:28:26;;;;;;;7.80;5.30;;;;;;;12.46;68.55;98439.44;6195636;28;20324;-55
2023/05/19 09:31:31;;;;;;;5.83;5.10;;;;;;;12.56;67.51;98439.66;6191494;28;20290;-56
2023/05/19 09:34:33;;;;;;;10.80;5.10;;;;;;;12.73;68.65;98437.06;6215909;28;20318;-56
2023/05/19 09:37:41;;;;;;;5.07;4.57;;;;;;;13.12;67.22;98431.91;6220553;28;20305;-56
2023/05/19 09:40:43;;;;;;;5.27;4.50;;;;;;;13.21;66.78;98430.50;6217286;28;20227;-56
2023/05/19 09:43:54;;;;;;;4.90;4.40;;;;;;;13.36;67.54;98413.91;6221284;28;20223;-56
2023/05/19 09:46:57;;;;;;;6.50;5.33;;;;;;;13.27;63.93;98418.84;6214688;28;20271;-56
2023/05/19 09:49:59;;;;;;;8.03;5.03;;;;;;;13.40;66.12;98407.84;6216870;28;20239;-57
2023/05/19 09:53:02;;;;;;;5.83;4.47;;;;;;;13.56;66.88;98421.47;6217219;28;20311;-56
2023/05/19 09:56:07;;;;;;;5.57;3.50;;;;;;;13.86;65.55;98415.78;6216965;28;20232;-56
2023/05/19 09:59:12;;;;;;;7.90;4.60;;;;;;;14.19;65.18;98407.72;6216126;28;20728;-56
2023/05/19 10:02:20;;;;;;;7.37;4.67;;;;;;;14.15;63.97;98401.22;6218067;28;20236;-56
2023/05/19 10:05:22;;;;;;;4.33;3.07;;;;;;;14.14;64.34;98398.81;6217235;28;20236;-57
2023/05/19 10:08:28;;;;;;;5.97;3.90;;;;;;;14.19;64.49;98409.59;6216518;28;20728;-57
2023/05/19 10:11:30;;;;;;;4.93;4.30;;;;;;;13.95;64.66;98408.97;6217183;28;20230;-57
2023/05/19 10:14:33;;;;;;;4.83;3.33;;;;;;;14.06;64.92;98402.69;6217534;28;20309;-56
2023/05/19 10:17:41;;;;;;;3.93;3.50;;;;;;;13.97;65.69;98404.16;6218534;28;20547;-56
2023/05/19 10:20:44;;;;;;;8.03;4.50;;;;;;;14.04;64.97;98398.63;6215429;28;20730;-56
2023/05/19 10:23:46;;;;;;;3.80;3.30;;;;;;;14.07;64.57;98388.25;6217738;28;20233;-57
2023/05/19 10:27:00;;;;;;;7.73;3.67;;;;;;;14.16;64.97;98397.47;6212172;28;20327;-56
2023/05/19 10:30:32;;;;;;;4.37;3.10;;;;;;;13.99;65.89;98393.19;6216183;28;20221;-56
2023/05/19 10:33:43;;;;;;;3.87;3.53;;;;;;;14.23;65.25;98391.94;6217705;28;21144;-57
2023/05/19 10:37:03;;;;;;;5.67;3.53;;;;;;;14.41;64.12;98388.97;6217442;28;20258;-57
2023/05/19 10:40:15;;;;;;;4.53;3.37;;;;;;;14.54;63.93;98382.47;6215162;28;20236;-57
2023/05/19 10:43:32;;;;;;;6.23;4.00;;;;;;;14.69;65.29;98382.63;6221031;28;20239;-57
2023/05/19 10:46:35;;;;;;;9.10;4.00;;;;;;;15.17;62.47;98382.84;6216439;28;20382;-59
2023/05/19 10:49:38;;;;;;;4.23;3.50;;;;;;;15.15;63.09;98391.16;6217685;28;20443;-59
2023/05/19 10:52:41;;;;;;;6.03;4.07;;;;;;;15.15;64.09;98396.53;6214608;28;20240;-57
2023/05/19 10:56:01;;;;;;;4.37;3.17;;;;;;;15.20;65.79;98399.25;6215738;28;20271;-56
2023/05/19 10:59:03;;;;;;;5.53;3.80;;;;;;;15.21;62.95;98403.56;6214302;28;20224;-56
2023/05/19 11:02:07;;;;;;;3.97;3.57;;;;;;;14.92;65.65;98396.81;6218601;28;20235;-57
2023/05/19 11:05:17;;;;;;;7.57;3.80;;;;;;;14.68;65.51;98397.13;6212674;28;20604;-57
2023/05/19 11:08:32;;;;;;;3.80;3.40;;;;;;;14.37;67.02;98395.88;6207729;28;20236;-58
2023/05/19 11:11:51;;;;;;;5.20;3.70;;;;;;;14.27;66.60;98386.91;6215379;28;20216;-57
2023/05/19 11:14:56;;;;;;;3.47;3.07;;;;;;;14.28;67.51;98388.50;6217955;28;20238;-56
2023/05/19 11:18:00;;;;;;;4.63;3.50;;;;;;;14.58;67.14;98385.44;6214489;28;20243;-57
2023/05/19 11:21:02;;;;;;;4.30;3.30;;;;;;;14.99;66.34;98383.22;6214051;28;20304;-57
2023/05/19 11:24:07;;;;;;;7.27;4.13;;;;;;;15.27;65.43;98374.06;6213199;28;20216;-56
2023/05/19 11:27:33;;;;;;;4.97;3.70;;;;;;;15.52;65.75;98376.16;6213899;28;20248;-59
2023/05/19 11:30:35;;;;;;;4.70;4.07;;;;;;;15.39;64.36;98370.16;6213074;28;20312;-59
2023/05/19 11:33:38;;;;;;;7.60;5.37;;;;;;;15.55;64.14;98381.84;6214905;28;20380;-59
2023/05/19 11:36:42;;;;;;;4.77;4.27;;;;;;;15.33;64.86;98375.75;6214567;28;20233;-59
2023/05/19 11:39:46;;;;;;;4.53;4.13;;;;;;;15.34;65.62;98370.13;6216024;28;20270;-59
2023/05/19 11:42:48;;;;;;;7.33;5.57;;;;;;;15.26;65.14;98365.22;6217677;28;20330;-59
2023/05/19 11:45:51;;;;;;;6.27;5.03;;;;;;;15.36;64.22;98364.50;6217669;28;20270;-59
2023/05/19 11:48:54;;;;;;;5.53;4.07;;;;;;;15.73;64.79;98362.69;6214680;28;20318;-58
2023/05/19 11:52:01;;;;;;;5.67;4.87;;;;;;;16.21;63.83;98355.44;6215941;28;20880;-59
2023/05/19 11:55:03;;;;;;;6.73;4.37;;;;;;;16.07;64.06;98351.59;6216677;28;20230;-58
2023/05/19 11:58:05;;;;;;;5.07;4.30;;;;;;;15.91;63.42;98358.78;6216536;28;20232;-59
2023/05/19 12:01:09;;;;;;;4.40;3.37;;;;;;;16.04;64.61;98356.69;6215858;28;20293;-59
2023/05/19 12:04:11;;;;;;;5.17;3.73;;;;;;;16.22;64.84;98364.31;6214434;28;20259;-59
2023/05/19 12:07:16;;;;;;;4.97;3.60;;;;;;;16.31;63.05;98354.69;6214084;28;20310;-60
2023/05/19 12:10:29;;;;;;;3.80;3.40;;;;;;;16.18;64.41;98353.25;6218953;28;20314;-59
2023/05/19 12:13:32;;;;;;;5.53;3.83;;;;;;;16.07;63.82;98356.16;6220856;28;20285;-60
2023/05/19 12:16:35;;;;;;;4.17;3.77;;;;;;;16.11;64.15;98363.47;6219410;28;20235;-59
2023/05/19 12:19:38;;;;;;;3.77;3.07;;;;;;;16.07;64.91;98334.66;6225657;28;20293;-57
2023/05/19 12:22:40;;;;;;;5.60;3.13;;;;;;;16.34;65.87;98353.34;6217848;28;20232;-60
2023/05/19 12:25:43;;;;;;;6.10;4.07;;;;;;;16.46;62.36;98359.31;6220937;28;20232;-59
2023/05/19 12:28:45;;;;;;;4.03;3.10;;;;;;;16.41;63.53;98365.47;6219919;28;20228;-59
2023/05/19 12:31:48;;;;;;;4.43;3.23;;;;;;;16.64;62.67;98353.44;6219653;28;20285;-56
2023/05/19 12:34:51;;;;;;;3.23;2.77;;;;;;;16.56;63.05;98342.41;6218330;28;20268;-56
2023/05/19 12:37:53;;;;;;;4.73;2.90;;;;;;;16.79;63.35;98352.72;6221452;28;20234;-57
2023/05/19 12:40:59;;;;;;;3.40;2.77;;;;;;;17.07;63.04;98345.22;6219908;28;20252;-57
2023/05/19 12:44:13;;;;;;;3.80;2.80;;;;;;;17.12;60.80;98345.25;6218954;28;20311;-58
2023/05/19 12:47:18;;;;;;;4.00;3.60;;;;;;;17.04;60.58;98349.25;6219611;28;20232;-60
2023/05/19 12:50:20;;;;;;;4.40;2.97;;;;;;;16.92;63.21;98352.22;6217205;28;20227;-58
2023/05/19 12:53:27;;;;;;;8.10;3.00;;;;;;;16.60;63.27;98354.22;6217887;28;20255;-57
2023/05/19 12:56:29;;;;;;;3.53;2.67;;;;;;;16.51;62.76;98346.69;6220388;28;20244;-58
2023/05/19 12:59:33;;;;;;;4.73;2.70;;;;;;;16.30;64.90;98322.66;6221003;28;20373;-58
2023/05/19 13:03:06;;;;;;;4.97;3.00;;;;;;;16.50;62.77;98334.31;6201433;28;20239;-57
2023/05/19 13:06:09;;;;;;;3.47;2.53;;;;;;;16.43;63.32;98335.63;6219760;28;20236;-58
2023/05/19 13:09:11;;;;;;;3.87;2.90;;;;;;;16.54;65.09;98326.50;6218272;28;20363;-59
2023/05/19 13:12:17;;;;;;;2.77;2.20;;;;;;;16.39;64.55;98337.22;6218678;28;20224;-59
2023/05/19 13:15:19;;;;;;;3.83;2.50;;;;;;;16.45;65.35;98333.47;6216801;28;20435;-58
2023/05/19 13:18:23;;;;;;;4.00;2.80;;;;;;;16.50;64.00;98333.47;6216748;28;20509;-57
2023/05/19 13:21:25;;;;;;;4.13;2.80;;;;;;;16.60;64.42;98328.16;6219283;28;20303;-59
2023/05/19 13:24:28;;;;;;;4.50;2.40;;;;;;;16.75;65.25;98333.63;6218538;28;20228;-58
2023/05/19 13:27:30;;;;;;;3.03;2.70;;;;;;;16.64;63.64;98320.34;6216758;28;20235;-60
2023/05/19 13:30:33;;;;;;;3.07;2.63;;;;;;;16.91;63.73;98307.53;6217891;28;20309;-60
2023/05/19 13:33:36;;;;;;;3.70;2.57;;;;;;;16.89;63.30;98308.88;6201100;28;20730;-60
2023/05/19 13:36:39;;;;;;;3.17;2.80;;;;;;;16.87;63.90;98302.94;6196189;28;20232;-60
2023/05/19 13:39:41;;;;;;;3.07;2.33;;;;;;;17.01;63.95;98306.75;6193501;28;20308;-60
2023/05/19 13:42:44;;;;;;;2.73;2.53;;;;;;;17.05;64.30;98304.31;6193994;28;20271;-60
2023/05/19 13:45:46;;;;;;;4.93;2.20;;;;;;;16.86;64.98;98299.44;6194486;28;20228;-60
2023/05/19 13:48:49;;;;;;;4.53;3.10;;;;;;;16.95;63.73;98297.06;6194383;28;20247;-61
2023/05/19 13:51:55;;;;;;;2.10;1.90;;;;;;;16.77;66.03;98295.66;6192666;28;20783;-58
2023/05/19 13:54:57;;;;;;;3.70;2.53;;;;;;;16.97;65.53;98290.31;6194435;28;20324;-60
2023/05/19 13:57:59;;;;;;;3.63;2.00;;;;;;;16.80;64.84;98300.53;6193662;28;20267;-58
2023/05/19 14:01:02;;;;;;;4.33;2.17;;;;;;;16.83;65.07;98288.41;6189639;28;20240;-58
2023/05/19 14:04:04;;;;;;;2.40;2.10;;;;;;;16.92;63.84;98282.22;6197250;28;20231;-60
2023/05/19 14:07:11;;;;;;;2.97;1.93;;;;;;;17.00;63.57;98288.97;6197027;28;20247;-60
2023/05/19 14:10:13;;;;;;;2.60;2.07;;;;;;;16.97;63.43;98292.19;6199351;28;20221;-59
2023/05/19 14:13:16;;;;;;;2.53;2.10;;;;;;;16.87;64.61;98276.84;6190108;28;20240;-57
2023/05/19 14:16:38;;;;;;;2.03;1.87;;;;;;;16.94;64.92;98280.06;6187906;28;20234;-60
2023/05/19 14:19:40;;;;;;;3.37;1.73;;;;;;;17.00;65.54;98278.22;6189257;28;20245;-58
2023/05/19 14:22:43;;;;;;;2.43;1.70;;;;;;;17.01;66.54;98269.84;6189536;28;20235;-58
2023/05/19 14:25:45;;;;;;;1.80;1.70;;;;;;;16.97;66.03;98271.47;6174595;28;20225;-58
2023/05/19 14:28:47;;;;;;;2.20;2.00;;;;;;;16.97;64.76;98278.75;6192772;28;20232;-58
2023/05/19 14:31:49;;;;;;;1.90;1.57;;;;;;;16.92;64.83;98281.44;6190673;28;20299;-58
2023/05/19 14:34:52;;;;;;;2.83;1.70;;;;;;;16.93;65.19;98283.03;6221409;28;20232;-58
2023/05/19 14:37:55;;;;;;;2.40;1.67;;;;;;;16.82;64.02;98289.50;6216794;28;20707;-58